Leo, Wyoming
Current Conditions -  °F | °C
As of 10:15 PM on Thursday 30 Oct 2014 (Local Time) from KEHY Reporting Station
Clear Clear  
Wind Chill: 29°   Ceiling: Unl
Heat Index: 36°   Visibility: 10mi
Dew Point: 19°   Wind: 8mph
Humidity: 52%   Direction: 70°ENE
Pressure: 30.34"   Gusts: NA
Location:  42.0236°N, 106.54°W
Report Text: KEHY 310415Z AUTO 07007KT 10SM CLR 02/M07 A3034 RMK AO2
Loading
Personal Weather Stations






























Interactive Weather Map
Tropical Storm Tracking
New forecast layout! Learn more

10-Day Weather Forecast

Advertisements
Track Severe Weather on mobile